sensor_id;sensor_type;location;lat;lon;timestamp;temperature;humidity
9544;DHT22;30418;51.45933468;7.33152330;2022-08-01T00:02:06;24.00;67.00
9544;DHT22;30418;51.45933468;7.33152330;2022-08-01T00:04:38;24.00;67.10
9544;DHT22;30418;51.45933468;7.33152330;2022-08-01T00:07:07;24.00;67.20
9544;DHT22;30418;51.45933468;7.33152330;2022-08-01T00:09:35;24.00;67.30
9544;DHT22;30418;51.45933468;7.33152330;2022-08-01T00:12:04;24.00;67.40
9544;DHT22;30418;51.45933468;7.33152330;2022-08-01T00:14:35;24.00;67.40
9544;DHT22;30418;51.45933468;7.33152330;2022-08-01T00:17:05;24.00;67.40
9544;DHT22;30418;51.45933468;7.33152330;2022-08-01T00:19:34;24.00;67.40
9544;DHT22;30418;51.45933468;7.33152330;2022-08-01T00:22:03;24.00;67.40
9544;DHT22;30418;51.45933468;7.33152330;2022-08-01T00:24:32;23.90;67.30
9544;DHT22;30418;51.45933468;7.33152330;2022-08-01T00:27:01;23.90;67.30
9544;DHT22;30418;51.45933468;7.33152330;2022-08-01T00:29:30;23.90;67.30
9544;DHT22;30418;51.45933468;7.33152330;2022-08-01T00:32:20;23.90;67.40
9544;DHT22;30418;51.45933468;7.33152330;2022-08-01T00:34:48;23.90;67.50
9544;DHT22;30418;51.45933468;7.33152330;2022-08-01T00:37:17;23.90;67.40
9544;DHT22;30418;51.45933468;7.33152330;2022-08-01T00:39:46;23.90;67.50
9544;DHT22;30418;51.45933468;7.33152330;2022-08-01T00:42:14;23.80;67.40
9544;DHT22;30418;51.45933468;7.33152330;2022-08-01T00:44:43;23.90;67.50
9544;DHT22;30418;51.45933468;7.33152330;2022-08-01T00:47:12;23.80;67.50
9544;DHT22;30418;51.45933468;7.33152330;2022-08-01T00:49:42;23.80;67.60
9544;DHT22;30418;51.45933468;7.33152330;2022-08-01T00:52:11;23.80;67.90
9544;DHT22;30418;51.45933468;7.33152330;2022-08-01T00:54:40;23.80;67.90
9544;DHT22;30418;51.45933468;7.33152330;2022-08-01T00:57:09;23.80;67.80
9544;DHT22;30418;51.45933468;7.33152330;2022-08-01T00:59:41;23.80;67.90
9544;DHT22;30418;51.45933468;7.33152330;2022-08-01T01:02:09;23.80;68.00
9544;DHT22;30418;51.45933468;7.33152330;2022-08-01T01:04:43;23.80;68.10
9544;DHT22;30418;51.45933468;7.33152330;2022-08-01T01:07:21;23.70;68.10
9544;DHT22;30418;51.45933468;7.33152330;2022-08-01T01:09:58;23.70;68.40
9544;DHT22;30418;51.45933468;7.33152330;2022-08-01T01:12:31;23.70;68.20
9544;DHT22;30418;51.45933468;7.33152330;2022-08-01T01:15:10;23.70;68.20
9544;DHT22;30418;51.45933468;7.33152330;2022-08-01T01:17:48;23.70;68.30
9544;DHT22;30418;51.45933468;7.33152330;2022-08-01T01:20:30;23.70;68.50
9544;DHT22;30418;51.45933468;7.33152330;2022-08-01T01:23:12;23.70;68.70
9544;DHT22;30418;51.45933468;7.33152330;2022-08-01T01:26:01;23.70;68.80
9544;DHT22;30418;51.45933468;7.33152330;2022-08-01T01:28:58;23.70;68.60
9544;DHT22;30418;51.45933468;7.33152330;2022-08-01T01:31:35;23.70;68.60
9544;DHT22;30418;51.45933468;7.33152330;2022-08-01T01:34:08;23.70;68.50
9544;DHT22;30418;51.45933468;7.33152330;2022-08-01T01:36:39;23.70;68.30
9544;DHT22;30418;51.45933468;7.33152330;2022-08-01T01:39:08;23.70;68.50
9544;DHT22;30418;51.45933468;7.33152330;2022-08-01T01:41:37;23.70;68.50
9544;DHT22;30418;51.45933468;7.33152330;2022-08-01T01:44:09;23.70;68.50
9544;DHT22;30418;51.45933468;7.33152330;2022-08-01T01:46:39;23.70;68.70
9544;DHT22;30418;51.45933468;7.33152330;2022-08-01T01:49:10;23.70;68.70
9544;DHT22;30418;51.45933468;7.33152330;2022-08-01T01:51:40;23.70;68.60
9544;DHT22;30418;51.45933468;7.33152330;2022-08-01T01:54:31;23.70;68.70
9544;DHT22;30418;51.45933468;7.33152330;2022-08-01T01:57:03;23.70;68.70
9544;DHT22;30418;51.45933468;7.33152330;2022-08-01T01:59:36;23.70;68.60
9544;DHT22;30418;51.45933468;7.33152330;2022-08-01T02:02:06;23.70;68.70
9544;DHT22;30418;51.45933468;7.33152330;2022-08-01T02:04:39;23.70;68.60
9544;DHT22;30418;51.45933468;7.33152330;2022-08-01T02:07:11;23.70;68.60
9544;DHT22;30418;51.45933468;7.33152330;2022-08-01T02:09:43;23.70;68.60
9544;DHT22;30418;51.45933468;7.33152330;2022-08-01T02:12:12;23.70;68.60
9544;DHT22;30418;51.45933468;7.33152330;2022-08-01T02:14:44;23.70;68.60
9544;DHT22;30418;51.45933468;7.33152330;2022-08-01T02:17:17;23.70;68.80
9544;DHT22;30418;51.45933468;7.33152330;2022-08-01T02:19:47;23.60;68.80
9544;DHT22;30418;51.45933468;7.33152330;2022-08-01T02:22:19;23.70;68.80
9544;DHT22;30418;51.45933468;7.33152330;2022-08-01T02:24:54;23.70;69.00
9544;DHT22;30418;51.45933468;7.33152330;2022-08-01T02:27:33;23.70;69.00
9544;DHT22;30418;51.45933468;7.33152330;2022-08-01T02:30:06;23.70;69.00
9544;DHT22;30418;51.45933468;7.33152330;2022-08-01T02:32:38;23.60;68.90
9544;DHT22;30418;51.45933468;7.33152330;2022-08-01T02:35:19;23.60;68.90
9544;DHT22;30418;51.45933468;7.33152330;2022-08-01T02:37:52;23.60;69.00
9544;DHT22;30418;51.45933468;7.33152330;2022-08-01T02:40:21;23.60;68.80
9544;DHT22;30418;51.45933468;7.33152330;2022-08-01T02:42:52;23.60;68.80
9544;DHT22;30418;51.45933468;7.33152330;2022-08-01T02:45:25;23.60;68.90
9544;DHT22;30418;51.45933468;7.33152330;2022-08-01T02:47:58;23.60;68.90
9544;DHT22;30418;51.45933468;7.33152330;2022-08-01T02:50:30;23.60;68.90
9544;DHT22;30418;51.45933468;7.33152330;2022-08-01T02:53:00;23.60;68.90
9544;DHT22;30418;51.45933468;7.33152330;2022-08-01T02:55:32;23.50;68.80
9544;DHT22;30418;51.45933468;7.33152330;2022-08-01T02:58:03;23.50;69.00
9544;DHT22;30418;51.45933468;7.33152330;2022-08-01T03:00:33;23.50;69.00
9544;DHT22;30418;51.45933468;7.33152330;2022-08-01T03:03:06;23.50;69.10
9544;DHT22;30418;51.45933468;7.33152330;2022-08-01T03:05:35;23.50;69.10
9544;DHT22;30418;51.45933468;7.33152330;2022-08-01T03:08:08;23.50;69.10
9544;DHT22;30418;51.45933468;7.33152330;2022-08-01T03:10:43;23.50;69.20
9544;DHT22;30418;51.45933468;7.33152330;2022-08-01T03:13:13;23.50;69.30
9544;DHT22;30418;51.45933468;7.33152330;2022-08-01T03:15:44;23.50;69.30
9544;DHT22;30418;51.45933468;7.33152330;2022-08-01T03:18:14;23.60;69.40
9544;DHT22;30418;51.45933468;7.33152330;2022-08-01T03:20:45;23.50;69.30
9544;DHT22;30418;51.45933468;7.33152330;2022-08-01T03:23:15;23.60;69.40
9544;DHT22;30418;51.45933468;7.33152330;2022-08-01T03:25:45;23.50;69.30
9544;DHT22;30418;51.45933468;7.33152330;2022-08-01T03:28:16;23.60;69.40
9544;DHT22;30418;51.45933468;7.33152330;2022-08-01T03:30:46;23.60;69.50
9544;DHT22;30418;51.45933468;7.33152330;2022-08-01T03:33:16;23.50;69.40
9544;DHT22;30418;51.45933468;7.33152330;2022-08-01T03:35:48;23.60;69.40
9544;DHT22;30418;51.45933468;7.33152330;2022-08-01T03:38:19;23.50;69.40
9544;DHT22;30418;51.45933468;7.33152330;2022-08-01T03:40:53;23.60;69.30
9544;DHT22;30418;51.45933468;7.33152330;2022-08-01T03:43:29;23.50;69.30
9544;DHT22;30418;51.45933468;7.33152330;2022-08-01T03:46:04;23.50;69.40
9544;DHT22;30418;51.45933468;7.33152330;2022-08-01T03:48:38;23.50;69.50
9544;DHT22;30418;51.45933468;7.33152330;2022-08-01T03:51:09;23.50;69.40
9544;DHT22;30418;51.45933468;7.33152330;2022-08-01T03:53:38;23.60;69.50
9544;DHT22;30418;51.45933468;7.33152330;2022-08-01T03:56:10;23.50;69.50
9544;DHT22;30418;51.45933468;7.33152330;2022-08-01T03:58:39;23.50;69.50
9544;DHT22;30418;51.45933468;7.33152330;2022-08-01T04:01:11;23.50;69.50
9544;DHT22;30418;51.45933468;7.33152330;2022-08-01T04:03:42;23.50;69.60
9544;DHT22;30418;51.45933468;7.33152330;2022-08-01T04:06:11;23.50;69.50
9544;DHT22;30418;51.45933468;7.33152330;2022-08-01T04:08:41;23.50;69.50
9544;DHT22;30418;51.45933468;7.33152330;2022-08-01T04:11:09;23.50;69.50
9544;DHT22;30418;51.45933468;7.33152330;2022-08-01T04:13:39;23.50;69.50
9544;DHT22;30418;51.45933468;7.33152330;2022-08-01T04:16:11;23.60;69.50
9544;DHT22;30418;51.45933468;7.33152330;2022-08-01T04:18:40;23.50;69.50
9544;DHT22;30418;51.45933468;7.33152330;2022-08-01T04:21:09;23.50;69.50
9544;DHT22;30418;51.45933468;7.33152330;2022-08-01T04:23:39;23.50;69.60
9544;DHT22;30418;51.45933468;7.33152330;2022-08-01T04:26:11;23.50;69.50
9544;DHT22;30418;51.45933468;7.33152330;2022-08-01T04:28:42;23.60;69.60
9544;DHT22;30418;51.45933468;7.33152330;2022-08-01T04:31:15;23.50;69.50
9544;DHT22;30418;51.45933468;7.33152330;2022-08-01T04:33:47;23.50;69.70
9544;DHT22;30418;51.45933468;7.33152330;2022-08-01T04:36:20;23.50;70.50
9544;DHT22;30418;51.45933468;7.33152330;2022-08-01T04:38:55;23.50;69.60
9544;DHT22;30418;51.45933468;7.33152330;2022-08-01T04:41:26;23.50;69.70
9544;DHT22;30418;51.45933468;7.33152330;2022-08-01T04:43:57;23.50;69.60
9544;DHT22;30418;51.45933468;7.33152330;2022-08-01T04:46:28;23.50;69.70
9544;DHT22;30418;51.45933468;7.33152330;2022-08-01T04:48:58;23.50;69.80
9544;DHT22;30418;51.45933468;7.33152330;2022-08-01T04:51:27;23.50;69.80
9544;DHT22;30418;51.45933468;7.33152330;2022-08-01T04:54:02;23.50;69.80
9544;DHT22;30418;51.45933468;7.33152330;2022-08-01T04:56:47;23.60;70.20
9544;DHT22;30418;51.45933468;7.33152330;2022-08-01T04:59:17;23.60;69.70
9544;DHT22;30418;51.45933468;7.33152330;2022-08-01T05:02:05;23.60;69.70
9544;DHT22;30418;51.45933468;7.33152330;2022-08-01T05:04:34;23.60;69.80
9544;DHT22;30418;51.45933468;7.33152330;2022-08-01T05:07:03;23.60;69.80
9544;DHT22;30418;51.45933468;7.33152330;2022-08-01T05:09:32;23.60;69.80
9544;DHT22;30418;51.45933468;7.33152330;2022-08-01T05:12:04;23.60;70.00
9544;DHT22;30418;51.45933468;7.33152330;2022-08-01T05:14:34;23.60;70.00
9544;DHT22;30418;51.45933468;7.33152330;2022-08-01T05:17:06;23.70;70.10
9544;DHT22;30418;51.45933468;7.33152330;2022-08-01T05:19:37;23.60;70.20
9544;DHT22;30418;51.45933468;7.33152330;2022-08-01T05:22:07;23.60;69.90
9544;DHT22;30418;51.45933468;7.33152330;2022-08-01T05:24:38;23.60;70.00
9544;DHT22;30418;51.45933468;7.33152330;2022-08-01T05:27:08;23.60;70.00
9544;DHT22;30418;51.45933468;7.33152330;2022-08-01T05:29:39;23.60;69.80
9544;DHT22;30418;51.45933468;7.33152330;2022-08-01T05:32:12;23.60;69.80
9544;DHT22;30418;51.45933468;7.33152330;2022-08-01T05:34:40;23.60;70.00
9544;DHT22;30418;51.45933468;7.33152330;2022-08-01T05:37:09;23.60;70.00
9544;DHT22;30418;51.45933468;7.33152330;2022-08-01T05:39:38;23.60;70.10
9544;DHT22;30418;51.45933468;7.33152330;2022-08-01T05:42:07;23.60;70.10
9544;DHT22;30418;51.45933468;7.33152330;2022-08-01T05:44:36;23.60;70.00
9544;DHT22;30418;51.45933468;7.33152330;2022-08-01T05:47:04;23.60;69.80
9544;DHT22;30418;51.45933468;7.33152330;2022-08-01T05:49:34;23.60;69.80
9544;DHT22;30418;51.45933468;7.33152330;2022-08-01T05:52:03;23.50;69.70
9544;DHT22;30418;51.45933468;7.33152330;2022-08-01T05:54:32;23.50;69.80
9544;DHT22;30418;51.45933468;7.33152330;2022-08-01T05:57:01;23.50;70.90
9544;DHT22;30418;51.45933468;7.33152330;2022-08-01T05:59:30;23.50;70.10
9544;DHT22;30418;51.45933468;7.33152330;2022-08-01T06:01:59;23.50;70.10
9544;DHT22;30418;51.45933468;7.33152330;2022-08-01T06:04:29;23.50;70.10
9544;DHT22;30418;51.45933468;7.33152330;2022-08-01T06:06:59;23.50;70.10
9544;DHT22;30418;51.45933468;7.33152330;2022-08-01T06:09:28;23.50;70.10
9544;DHT22;30418;51.45933468;7.33152330;2022-08-01T06:11:57;23.50;70.20
9544;DHT22;30418;51.45933468;7.33152330;2022-08-01T06:14:26;23.50;70.10
9544;DHT22;30418;51.45933468;7.33152330;2022-08-01T06:16:54;23.50;70.10
9544;DHT22;30418;51.45933468;7.33152330;2022-08-01T06:19:23;23.50;70.10
9544;DHT22;30418;51.45933468;7.33152330;2022-08-01T06:21:53;23.50;70.10
9544;DHT22;30418;51.45933468;7.33152330;2022-08-01T06:24:23;23.50;70.20
9544;DHT22;30418;51.45933468;7.33152330;2022-08-01T06:26:54;23.50;70.10
9544;DHT22;30418;51.45933468;7.33152330;2022-08-01T06:29:22;23.60;70.20
9544;DHT22;30418;51.45933468;7.33152330;2022-08-01T06:31:51;23.50;70.10
9544;DHT22;30418;51.45933468;7.33152330;2022-08-01T06:34:19;23.50;70.10
9544;DHT22;30418;51.45933468;7.33152330;2022-08-01T06:36:49;23.50;70.10
9544;DHT22;30418;51.45933468;7.33152330;2022-08-01T06:39:17;23.60;70.20
9544;DHT22;30418;51.45933468;7.33152330;2022-08-01T06:41:48;23.50;69.80
9544;DHT22;30418;51.45933468;7.33152330;2022-08-01T06:44:16;23.60;70.00
9544;DHT22;30418;51.45933468;7.33152330;2022-08-01T06:46:45;23.60;70.10
9544;DHT22;30418;51.45933468;7.33152330;2022-08-01T06:49:13;23.50;70.00
9544;DHT22;30418;51.45933468;7.33152330;2022-08-01T06:51:42;23.60;70.20
9544;DHT22;30418;51.45933468;7.33152330;2022-08-01T06:54:11;23.60;70.20
9544;DHT22;30418;51.45933468;7.33152330;2022-08-01T06:56:39;23.60;70.30
9544;DHT22;30418;51.45933468;7.33152330;2022-08-01T06:59:09;23.70;70.40
9544;DHT22;30418;51.45933468;7.33152330;2022-08-01T07:01:38;23.70;70.30
9544;DHT22;30418;51.45933468;7.33152330;2022-08-01T07:04:06;23.70;70.30
9544;DHT22;30418;51.45933468;7.33152330;2022-08-01T07:06:35;23.70;70.30
9544;DHT22;30418;51.45933468;7.33152330;2022-08-01T07:09:04;23.70;70.30
9544;DHT22;30418;51.45933468;7.33152330;2022-08-01T07:11:40;23.70;70.30
9544;DHT22;30418;51.45933468;7.33152330;2022-08-01T07:14:10;23.70;70.30
9544;DHT22;30418;51.45933468;7.33152330;2022-08-01T07:16:38;23.70;70.30
9544;DHT22;30418;51.45933468;7.33152330;2022-08-01T07:19:07;23.70;70.30
9544;DHT22;30418;51.45933468;7.33152330;2022-08-01T07:21:36;23.80;70.40
9544;DHT22;30418;51.45933468;7.33152330;2022-08-01T07:24:13;23.80;70.40
9544;DHT22;30418;51.45933468;7.33152330;2022-08-01T07:26:47;23.80;70.40
9544;DHT22;30418;51.45933468;7.33152330;2022-08-01T07:29:22;23.80;70.40
9544;DHT22;30418;51.45933468;7.33152330;2022-08-01T07:31:52;23.80;70.30
9544;DHT22;30418;51.45933468;7.33152330;2022-08-01T07:34:22;23.90;70.00
9544;DHT22;30418;51.45933468;7.33152330;2022-08-01T07:36:51;23.90;70.10
9544;DHT22;30418;51.45933468;7.33152330;2022-08-01T07:39:20;23.90;70.20
9544;DHT22;30418;51.45933468;7.33152330;2022-08-01T07:41:49;23.90;70.20
9544;DHT22;30418;51.45933468;7.33152330;2022-08-01T07:44:39;23.90;70.20
9544;DHT22;30418;51.45933468;7.33152330;2022-08-01T07:47:08;24.00;70.30
9544;DHT22;30418;51.45933468;7.33152330;2022-08-01T07:49:36;24.00;70.10
9544;DHT22;30418;51.45933468;7.33152330;2022-08-01T07:52:07;24.00;70.30
9544;DHT22;30418;51.45933468;7.33152330;2022-08-01T07:54:36;24.00;70.00
9544;DHT22;30418;51.45933468;7.33152330;2022-08-01T07:57:05;24.00;69.60
9544;DHT22;30418;51.45933468;7.33152330;2022-08-01T07:59:34;24.00;69.80
9544;DHT22;30418;51.45933468;7.33152330;2022-08-01T08:02:04;24.00;69.70
9544;DHT22;30418;51.45933468;7.33152330;2022-08-01T08:04:33;24.10;69.90
9544;DHT22;30418;51.45933468;7.33152330;2022-08-01T08:07:02;24.10;69.80
9544;DHT22;30418;51.45933468;7.33152330;2022-08-01T08:09:31;24.20;69.80
9544;DHT22;30418;51.45933468;7.33152330;2022-08-01T08:12:05;24.30;69.90
9544;DHT22;30418;51.45933468;7.33152330;2022-08-01T08:14:35;24.30;69.80
9544;DHT22;30418;51.45933468;7.33152330;2022-08-01T08:17:05;24.40;69.50
9544;DHT22;30418;51.45933468;7.33152330;2022-08-01T08:19:34;24.40;68.90
9544;DHT22;30418;51.45933468;7.33152330;2022-08-01T08:22:06;24.40;69.00
9544;DHT22;30418;51.45933468;7.33152330;2022-08-01T08:24:37;24.40;68.90
9544;DHT22;30418;51.45933468;7.33152330;2022-08-01T08:27:13;24.50;68.90
9544;DHT22;30418;51.45933468;7.33152330;2022-08-01T08:29:42;24.50;68.80
9544;DHT22;30418;51.45933468;7.33152330;2022-08-01T08:32:12;24.50;68.30
9544;DHT22;30418;51.45933468;7.33152330;2022-08-01T08:34:41;24.50;68.30
9544;DHT22;30418;51.45933468;7.33152330;2022-08-01T08:37:10;24.50;67.90
9544;DHT22;30418;51.45933468;7.33152330;2022-08-01T08:39:40;24.40;67.50
9544;DHT22;30418;51.45933468;7.33152330;2022-08-01T08:42:09;24.40;67.60
9544;DHT22;30418;51.45933468;7.33152330;2022-08-01T08:44:41;24.40;67.90
9544;DHT22;30418;51.45933468;7.33152330;2022-08-01T08:47:13;24.50;68.20
9544;DHT22;30418;51.45933468;7.33152330;2022-08-01T08:49:47;24.50;68.50
9544;DHT22;30418;51.45933468;7.33152330;2022-08-01T08:52:19;24.60;68.10
9544;DHT22;30418;51.45933468;7.33152330;2022-08-01T08:54:49;24.70;68.10
9544;DHT22;30418;51.45933468;7.33152330;2022-08-01T08:57:20;24.70;67.90
9544;DHT22;30418;51.45933468;7.33152330;2022-08-01T08:59:49;24.80;67.60
9544;DHT22;30418;51.45933468;7.33152330;2022-08-01T09:02:22;24.80;67.70
9544;DHT22;30418;51.45933468;7.33152330;2022-08-01T09:04:51;24.80;67.30
9544;DHT22;30418;51.45933468;7.33152330;2022-08-01T09:07:20;24.80;67.20
9544;DHT22;30418;51.45933468;7.33152330;2022-08-01T09:09:50;24.80;67.20
9544;DHT22;30418;51.45933468;7.33152330;2022-08-01T09:12:19;24.90;66.70
9544;DHT22;30418;51.45933468;7.33152330;2022-08-01T09:14:48;24.90;66.40
9544;DHT22;30418;51.45933468;7.33152330;2022-08-01T09:17:22;24.90;66.30
9544;DHT22;30418;51.45933468;7.33152330;2022-08-01T09:19:53;24.90;66.50
9544;DHT22;30418;51.45933468;7.33152330;2022-08-01T09:22:25;24.90;66.10
9544;DHT22;30418;51.45933468;7.33152330;2022-08-01T09:25:00;24.90;66.20
9544;DHT22;30418;51.45933468;7.33152330;2022-08-01T09:27:34;24.90;66.00
9544;DHT22;30418;51.45933468;7.33152330;2022-08-01T09:30:17;24.90;65.70
9544;DHT22;30418;51.45933468;7.33152330;2022-08-01T09:33:02;25.00;65.70
9544;DHT22;30418;51.45933468;7.33152330;2022-08-01T09:35:54;24.90;65.10
9544;DHT22;30418;51.45933468;7.33152330;2022-08-01T09:38:26;24.90;65.10
9544;DHT22;30418;51.45933468;7.33152330;2022-08-01T09:40:57;24.90;65.20
9544;DHT22;30418;51.45933468;7.33152330;2022-08-01T09:43:29;24.80;65.10
9544;DHT22;30418;51.45933468;7.33152330;2022-08-01T09:46:00;24.90;65.60
9544;DHT22;30418;51.45933468;7.33152330;2022-08-01T09:48:56;24.90;65.10
9544;DHT22;30418;51.45933468;7.33152330;2022-08-01T09:51:31;24.90;65.10
9544;DHT22;30418;51.45933468;7.33152330;2022-08-01T09:54:29;24.90;65.20
9544;DHT22;30418;51.45933468;7.33152330;2022-08-01T09:57:11;25.00;65.30
9544;DHT22;30418;51.45933468;7.33152330;2022-08-01T09:59:43;25.00;64.60
9544;DHT22;30418;51.45933468;7.33152330;2022-08-01T10:02:30;25.00;64.80
9544;DHT22;30418;51.45933468;7.33152330;2022-08-01T10:05:03;25.10;64.40
9544;DHT22;30418;51.45933468;7.33152330;2022-08-01T10:07:35;25.10;64.40
9544;DHT22;30418;51.45933468;7.33152330;2022-08-01T10:10:11;25.20;64.80
9544;DHT22;30418;51.45933468;7.33152330;2022-08-01T10:12:42;25.20;63.90
9544;DHT22;30418;51.45933468;7.33152330;2022-08-01T10:15:15;25.20;63.90
9544;DHT22;30418;51.45933468;7.33152330;2022-08-01T10:17:50;25.30;64.00
9544;DHT22;30418;51.45933468;7.33152330;2022-08-01T10:20:27;25.40;64.10
9544;DHT22;30418;51.45933468;7.33152330;2022-08-01T10:22:59;25.50;63.80
9544;DHT22;30418;51.45933468;7.33152330;2022-08-01T10:25:35;25.60;64.00
9544;DHT22;30418;51.45933468;7.33152330;2022-08-01T10:28:14;25.60;63.60
9544;DHT22;30418;51.45933468;7.33152330;2022-08-01T10:30:51;25.70;63.10
9544;DHT22;30418;51.45933468;7.33152330;2022-08-01T10:33:22;25.70;63.10
9544;DHT22;30418;51.45933468;7.33152330;2022-08-01T10:36:13;25.80;62.60
9544;DHT22;30418;51.45933468;7.33152330;2022-08-01T10:38:42;25.80;62.50
9544;DHT22;30418;51.45933468;7.33152330;2022-08-01T10:41:13;25.90;62.40
9544;DHT22;30418;51.45933468;7.33152330;2022-08-01T10:43:43;25.90;62.20
9544;DHT22;30418;51.45933468;7.33152330;2022-08-01T10:46:13;25.80;61.60
9544;DHT22;30418;51.45933468;7.33152330;2022-08-01T10:48:48;25.80;61.20
9544;DHT22;30418;51.45933468;7.33152330;2022-08-01T10:51:21;25.80;61.10
9544;DHT22;30418;51.45933468;7.33152330;2022-08-01T10:54:11;25.80;61.40
9544;DHT22;30418;51.45933468;7.33152330;2022-08-01T10:56:44;25.70;61.30
9544;DHT22;30418;51.45933468;7.33152330;2022-08-01T10:59:20;25.70;61.10
9544;DHT22;30418;51.45933468;7.33152330;2022-08-01T11:02:10;25.70;61.20
9544;DHT22;30418;51.45933468;7.33152330;2022-08-01T11:04:48;25.60;61.10
9544;DHT22;30418;51.45933468;7.33152330;2022-08-01T11:07:34;25.60;61.30
9544;DHT22;30418;51.45933468;7.33152330;2022-08-01T11:10:20;25.50;61.50
9544;DHT22;30418;51.45933468;7.33152330;2022-08-01T11:12:52;25.40;61.90
9544;DHT22;30418;51.45933468;7.33152330;2022-08-01T11:15:23;25.40;62.40
9544;DHT22;30418;51.45933468;7.33152330;2022-08-01T11:17:58;25.40;62.70
9544;DHT22;30418;51.45933468;7.33152330;2022-08-01T11:20:30;25.40;62.90
9544;DHT22;30418;51.45933468;7.33152330;2022-08-01T11:23:24;25.40;62.80
9544;DHT22;30418;51.45933468;7.33152330;2022-08-01T11:26:20;25.40;62.50
9544;DHT22;30418;51.45933468;7.33152330;2022-08-01T11:29:14;25.40;62.80
9544;DHT22;30418;51.45933468;7.33152330;2022-08-01T11:31:48;25.40;62.40
9544;DHT22;30418;51.45933468;7.33152330;2022-08-01T11:34:19;25.40;62.60
9544;DHT22;30418;51.45933468;7.33152330;2022-08-01T11:36:48;25.40;63.50
9544;DHT22;30418;51.45933468;7.33152330;2022-08-01T11:39:27;25.40;62.40
9544;DHT22;30418;51.45933468;7.33152330;2022-08-01T11:42:18;25.50;62.40
9544;DHT22;30418;51.45933468;7.33152330;2022-08-01T11:44:49;25.50;61.70
9544;DHT22;30418;51.45933468;7.33152330;2022-08-01T11:47:21;25.60;62.90
9544;DHT22;30418;51.45933468;7.33152330;2022-08-01T11:50:32;25.60;62.50
9544;DHT22;30418;51.45933468;7.33152330;2022-08-01T11:53:03;25.70;62.10
9544;DHT22;30418;51.45933468;7.33152330;2022-08-01T11:55:34;25.80;61.90
9544;DHT22;30418;51.45933468;7.33152330;2022-08-01T11:58:05;25.80;61.70
9544;DHT22;30418;51.45933468;7.33152330;2022-08-01T12:00:50;25.80;61.50
9544;DHT22;30418;51.45933468;7.33152330;2022-08-01T12:03:24;25.80;61.20
9544;DHT22;30418;51.45933468;7.33152330;2022-08-01T12:06:00;25.80;61.00
9544;DHT22;30418;51.45933468;7.33152330;2022-08-01T12:08:30;25.80;61.10
9544;DHT22;30418;51.45933468;7.33152330;2022-08-01T12:11:04;25.80;61.10
9544;DHT22;30418;51.45933468;7.33152330;2022-08-01T12:13:40;25.80;60.80
9544;DHT22;30418;51.45933468;7.33152330;2022-08-01T12:16:11;25.80;60.70
9544;DHT22;30418;51.45933468;7.33152330;2022-08-01T12:18:40;25.80;60.80
9544;DHT22;30418;51.45933468;7.33152330;2022-08-01T12:21:09;25.80;61.20
9544;DHT22;30418;51.45933468;7.33152330;2022-08-01T12:23:38;25.80;61.60
9544;DHT22;30418;51.45933468;7.33152330;2022-08-01T12:26:08;25.90;61.20
9544;DHT22;30418;51.45933468;7.33152330;2022-08-01T12:28:56;25.90;60.70
9544;DHT22;30418;51.45933468;7.33152330;2022-08-01T12:31:32;26.00;61.00
9544;DHT22;30418;51.45933468;7.33152330;2022-08-01T12:34:24;26.00;60.70
9544;DHT22;30418;51.45933468;7.33152330;2022-08-01T12:36:56;26.10;60.40
9544;DHT22;30418;51.45933468;7.33152330;2022-08-01T12:39:30;26.10;60.50
9544;DHT22;30418;51.45933468;7.33152330;2022-08-01T12:42:01;26.10;60.60
9544;DHT22;30418;51.45933468;7.33152330;2022-08-01T12:44:34;26.10;60.10
9544;DHT22;30418;51.45933468;7.33152330;2022-08-01T12:47:04;26.20;60.00
9544;DHT22;30418;51.45933468;7.33152330;2022-08-01T12:49:35;26.20;59.80
9544;DHT22;30418;51.45933468;7.33152330;2022-08-01T12:52:05;26.10;59.80
9544;DHT22;30418;51.45933468;7.33152330;2022-08-01T12:55:05;26.20;59.80
9544;DHT22;30418;51.45933468;7.33152330;2022-08-01T12:57:39;26.20;59.80
9544;DHT22;30418;51.45933468;7.33152330;2022-08-01T13:00:12;26.20;60.30
9544;DHT22;30418;51.45933468;7.33152330;2022-08-01T13:02:43;26.30;59.80
9544;DHT22;30418;51.45933468;7.33152330;2022-08-01T13:05:14;26.20;59.70
9544;DHT22;30418;51.45933468;7.33152330;2022-08-01T13:07:46;26.20;59.80
9544;DHT22;30418;51.45933468;7.33152330;2022-08-01T13:10:25;26.30;59.80
9544;DHT22;30418;51.45933468;7.33152330;2022-08-01T13:12:58;26.30;59.80
9544;DHT22;30418;51.45933468;7.33152330;2022-08-01T13:15:29;26.30;59.50
9544;DHT22;30418;51.45933468;7.33152330;2022-08-01T13:18:24;26.20;59.20
9544;DHT22;30418;51.45933468;7.33152330;2022-08-01T13:21:13;26.20;58.50
9544;DHT22;30418;51.45933468;7.33152330;2022-08-01T13:24:00;26.10;58.40
9544;DHT22;30418;51.45933468;7.33152330;2022-08-01T13:26:42;26.00;58.50
9544;DHT22;30418;51.45933468;7.33152330;2022-08-01T13:29:14;26.00;58.60
9544;DHT22;30418;51.45933468;7.33152330;2022-08-01T13:31:44;25.90;58.80
9544;DHT22;30418;51.45933468;7.33152330;2022-08-01T13:34:15;25.90;59.60
9544;DHT22;30418;51.45933468;7.33152330;2022-08-01T13:36:44;25.90;59.30
9544;DHT22;30418;51.45933468;7.33152330;2022-08-01T13:39:15;25.90;59.40
9544;DHT22;30418;51.45933468;7.33152330;2022-08-01T13:42:02;25.90;59.60
9544;DHT22;30418;51.45933468;7.33152330;2022-08-01T13:44:33;26.00;59.90
9544;DHT22;30418;51.45933468;7.33152330;2022-08-01T13:47:02;26.10;59.80
9544;DHT22;30418;51.45933468;7.33152330;2022-08-01T13:49:43;26.20;59.50
9544;DHT22;30418;51.45933468;7.33152330;2022-08-01T13:52:12;26.30;59.30
9544;DHT22;30418;51.45933468;7.33152330;2022-08-01T13:54:40;26.30;58.90
9544;DHT22;30418;51.45933468;7.33152330;2022-08-01T13:57:09;26.30;58.80
9544;DHT22;30418;51.45933468;7.33152330;2022-08-01T13:59:39;26.30;58.50
9544;DHT22;30418;51.45933468;7.33152330;2022-08-01T14:02:07;26.30;58.30
9544;DHT22;30418;51.45933468;7.33152330;2022-08-01T14:04:36;26.30;58.30
9544;DHT22;30418;51.45933468;7.33152330;2022-08-01T14:07:05;26.30;58.30